EHVL

Vlieland Heliport

Vlieland, The Netherlands
METAR EHVL 231555Z AUTO 07018KT 9999 OVC190 01/M03 Q1024 BLU
Observed Flight Rules
Feb-23 @ 15:55 UTC (43 minutes ago) Visual Flight Rules
Wind Visibility Clouds
70° at 18 knots 10,000+ meters
  • Overcast at 19,000' AGL
Temperatures Readings
Current 1°C / 34°F
Dewpoint -3°C / 27°F
Humidity 75%
Altimeter 30.24" Hg
Pressure 1024 hPa
Elevation 5
METAR EHVL 231555Z AUTO 07018KT 9999 OVC190 01/M03 Q1024 BLU
Observed Flight Rules
Feb-23 @ 15:55 UTC
(43 minutes ago)
VFR
Wind Visibility
70° at 18 knots 10,000+ meters
Clouds
  • Overcast at 19,000' AGL
Temperature Dewpoint
1°C / 34°F -3°C / 27°F
Humidity Altimeter Pressure
75% 30.24" Hg 1024 hPa